Time;durP1;ratioP1;P1;durP2;ratioP2;P2;SDS_P1;SDS_P2;PMS_P1;PMS_P2;Temp;Humidity;BMP_temperature;BMP_pressure;BME280_temperature;BME280_humidity;BME280_pressure;Samples;Min_cycle;Max_cycle;Signal;HPM_P1;HPM_P2
2022/04/07 00:01:47;;;;;;;5.30;3.60;;;8.10;99.90;;;;;;485250;245;28098;-71
2022/04/07 00:03:48;;;;;;;3.80;3.40;;;8.20;99.90;;;;;;485256;245;28106;-73
2022/04/07 00:05:50;;;;;;;3.80;3.07;;;8.20;99.90;;;;;;485286;245;27991;-71
2022/04/07 00:07:51;;;;;;;3.57;3.10;;;8.10;99.90;;;;;;485270;245;27905;-72
2022/04/07 00:09:52;;;;;;;3.97;2.97;;;8.20;99.90;;;;;;485266;245;28311;-71
2022/04/07 00:11:53;;;;;;;3.57;3.27;;;8.10;99.90;;;;;;485255;245;28414;-71
2022/04/07 00:13:55;;;;;;;6.13;3.50;;;8.20;99.90;;;;;;485246;245;28303;-73
2022/04/07 00:15:58;;;;;;;3.80;3.37;;;8.20;99.90;;;;;;485268;243;28202;-71
2022/04/07 00:18:00;;;;;;;3.67;3.37;;;8.20;99.90;;;;;;485142;245;28462;-72
2022/04/07 00:19:58;;;;;;;5.83;3.53;;;8.20;99.90;;;;;;484874;245;28473;-71
2022/04/07 00:22:00;;;;;;;5.47;3.53;;;8.20;99.90;;;;;;485247;245;28598;-71
2022/04/07 00:24:01;;;;;;;4.37;3.50;;;8.10;99.90;;;;;;485251;245;28021;-73
2022/04/07 00:26:02;;;;;;;5.30;3.20;;;8.10;99.90;;;;;;485269;245;27950;-71
2022/04/07 00:28:03;;;;;;;3.30;3.00;;;8.10;99.90;;;;;;485234;245;28218;-72
2022/04/07 00:30:05;;;;;;;4.23;3.30;;;8.10;99.90;;;;;;485260;243;27830;-71
2022/04/07 00:32:06;;;;;;;3.80;3.50;;;8.10;99.90;;;;;;485251;245;27946;-71
2022/04/07 00:34:07;;;;;;;3.70;3.17;;;8.10;99.90;;;;;;485234;245;28185;-71
2022/04/07 00:36:08;;;;;;;4.00;3.60;;;8.20;99.90;;;;;;485251;245;27954;-71
2022/04/07 00:38:10;;;;;;;3.83;3.53;;;8.20;99.90;;;;;;485236;245;28009;-72
2022/04/07 00:40:11;;;;;;;4.00;3.30;;;8.20;99.90;;;;;;485246;245;28152;-71
2022/04/07 00:42:12;;;;;;;4.00;3.07;;;8.20;99.90;;;;;;485234;245;28072;-72
2022/04/07 00:44:13;;;;;;;4.10;3.10;;;8.10;99.90;;;;;;485217;245;27998;-71
2022/04/07 00:46:15;;;;;;;3.50;3.20;;;8.10;99.90;;;;;;485242;245;27973;-71
2022/04/07 00:48:16;;;;;;;6.13;3.27;;;8.10;99.90;;;;;;485243;245;28002;-72
2022/04/07 00:50:17;;;;;;;7.07;3.80;;;8.10;99.90;;;;;;485235;245;28198;-71
2022/04/07 00:52:18;;;;;;;3.43;3.13;;;8.10;99.90;;;;;;485235;245;28565;-72
2022/04/07 00:54:20;;;;;;;3.87;3.50;;;8.10;99.90;;;;;;485224;245;29524;-71
2022/04/07 00:56:21;;;;;;;3.33;3.03;;;8.10;99.90;;;;;;485262;245;28480;-71
2022/04/07 00:58:22;;;;;;;3.83;3.53;;;8.10;99.90;;;;;;485235;245;28131;-72
2022/04/07 01:00:23;;;;;;;6.27;3.60;;;8.10;99.90;;;;;;485247;245;27590;-72
2022/04/07 01:02:25;;;;;;;3.70;3.30;;;8.00;99.90;;;;;;485215;245;28471;-71
2022/04/07 01:04:26;;;;;;;4.80;3.57;;;8.00;99.90;;;;;;485228;245;28189;-71
2022/04/07 01:06:27;;;;;;;4.00;3.50;;;8.00;99.90;;;;;;485256;245;27966;-71
2022/04/07 01:08:28;;;;;;;4.30;3.17;;;8.00;99.90;;;;;;485259;245;28026;-73
2022/04/07 01:10:30;;;;;;;4.87;3.67;;;8.00;99.90;;;;;;485245;245;28766;-71
2022/04/07 01:12:31;;;;;;;4.20;3.77;;;8.00;99.90;;;;;;485198;245;28136;-71
2022/04/07 01:14:32;;;;;;;4.00;3.13;;;8.00;99.90;;;;;;485250;245;28082;-71
2022/04/07 01:16:34;;;;;;;3.53;3.22;;;8.00;99.90;;;;;;485264;245;28067;-71
2022/04/07 01:18:35;;;;;;;3.30;3.00;;;8.00;99.90;;;;;;485255;245;27549;-72
2022/04/07 01:20:36;;;;;;;3.10;2.80;;;8.00;99.90;;;;;;485242;245;28000;-71
2022/04/07 01:22:37;;;;;;;3.00;2.70;;;8.00;99.90;;;;;;485244;245;28015;-72
2022/04/07 01:24:39;;;;;;;3.10;2.90;;;8.00;99.90;;;;;;485260;245;28536;-74
2022/04/07 01:26:40;;;;;;;3.87;3.27;;;8.00;99.90;;;;;;485331;245;28491;-71
2022/04/07 01:28:41;;;;;;;2.83;2.50;;;7.90;99.90;;;;;;485280;245;28494;-72
2022/04/07 01:30:42;;;;;;;2.70;2.50;;;7.90;99.90;;;;;;485259;245;28470;-71
2022/04/07 01:32:46;;;;;;;3.07;2.77;;;7.90;99.90;;;;;;485275;245;28954;-71
2022/04/07 01:34:47;;;;;;;3.50;3.00;;;7.90;99.90;;;;;;485248;245;28117;-71
2022/04/07 01:36:49;;;;;;;2.90;2.70;;;7.90;99.90;;;;;;485268;245;27981;-74
2022/04/07 01:38:50;;;;;;;3.00;2.80;;;7.90;99.90;;;;;;485258;245;28126;-71
2022/04/07 01:40:51;;;;;;;3.20;3.00;;;7.90;99.90;;;;;;485251;245;27794;-72
2022/04/07 01:42:56;;;;;;;3.20;2.90;;;7.90;99.90;;;;;;485244;245;27976;-71
2022/04/07 01:44:57;;;;;;;3.03;2.65;;;7.90;99.90;;;;;;485276;245;28236;-74
2022/04/07 01:46:58;;;;;;;3.90;3.30;;;7.80;99.90;;;;;;485270;245;27582;-71
2022/04/07 01:48:59;;;;;;;2.97;2.77;;;7.80;99.90;;;;;;485254;245;28859;-72
2022/04/07 01:51:01;;;;;;;3.03;2.77;;;7.80;99.90;;;;;;485246;245;28528;-71
2022/04/07 01:53:02;;;;;;;4.70;3.17;;;7.90;99.90;;;;;;485249;245;28435;-71
2022/04/07 01:55:03;;;;;;;2.90;2.70;;;7.80;99.90;;;;;;485273;245;28372;-72
2022/04/07 01:57:04;;;;;;;2.70;2.50;;;7.90;99.90;;;;;;485239;245;28432;-71
2022/04/07 01:59:07;;;;;;;2.63;2.43;;;7.90;99.90;;;;;;485256;245;28238;-72
2022/04/07 02:01:07;;;;;;;4.20;2.90;;;7.90;99.90;;;;;;485201;245;28027;-71
2022/04/07 02:03:08;;;;;;;3.20;2.90;;;7.90;99.90;;;;;;485249;245;28085;-72
2022/04/07 02:05:11;;;;;;;3.08;2.78;;;7.90;99.90;;;;;;485298;245;28000;-74
2022/04/07 02:07:11;;;;;;;3.83;2.70;;;7.90;99.90;;;;;;485211;245;27491;-72
2022/04/07 02:09:12;;;;;;;3.27;2.97;;;7.90;99.90;;;;;;485275;245;28108;-72
2022/04/07 02:11:13;;;;;;;3.93;2.73;;;7.90;99.90;;;;;;485259;245;27619;-71
2022/04/07 02:13:14;;;;;;;2.97;2.77;;;7.90;99.90;;;;;;485276;245;27759;-71
2022/04/07 02:15:16;;;;;;;3.00;2.80;;;7.80;99.90;;;;;;485283;245;27981;-72
2022/04/07 02:17:23;;;;;;;2.80;2.60;;;7.90;99.90;;;;;;485286;245;27986;-71
2022/04/07 02:19:24;;;;;;;2.90;2.60;;;7.90;99.90;;;;;;485279;243;28041;-70
2022/04/07 02:21:25;;;;;;;2.70;2.50;;;7.90;99.90;;;;;;485262;245;27835;-71
2022/04/07 02:23:27;;;;;;;3.20;2.90;;;7.90;99.90;;;;;;485282;245;28563;-72
2022/04/07 02:25:29;;;;;;;5.67;3.07;;;7.80;99.90;;;;;;485250;245;28322;-72
2022/04/07 02:27:29;;;;;;;3.80;2.73;;;7.90;99.90;;;;;;485179;245;28129;-72
2022/04/07 02:29:30;;;;;;;4.10;2.70;;;7.80;99.90;;;;;;485252;245;28280;-72
2022/04/07 02:31:32;;;;;;;2.50;2.40;;;7.90;99.90;;;;;;485278;245;28643;-71
2022/04/07 02:33:36;;;;;;;3.00;2.63;;;7.90;99.90;;;;;;485284;245;27990;-72
2022/04/07 02:35:34;;;;;;;2.67;2.47;;;7.90;99.90;;;;;;484928;245;28036;-72
2022/04/07 02:37:35;;;;;;;3.00;2.73;;;7.80;99.90;;;;;;485264;245;27951;-71
2022/04/07 02:39:37;;;;;;;2.60;2.40;;;7.80;99.90;;;;;;485254;245;27525;-71
2022/04/07 02:41:38;;;;;;;3.17;2.87;;;7.80;99.90;;;;;;485262;245;28585;-74
2022/04/07 02:43:39;;;;;;;2.80;2.60;;;7.80;99.90;;;;;;485264;245;27931;-72
2022/04/07 02:45:40;;;;;;;4.30;2.77;;;7.90;99.90;;;;;;485269;245;28066;-72
2022/04/07 02:47:42;;;;;;;3.10;2.67;;;7.90;99.90;;;;;;485254;245;27734;-71
2022/04/07 02:49:43;;;;;;;2.60;2.40;;;7.90;99.90;;;;;;485226;245;28172;-72
2022/04/07 02:51:44;;;;;;;5.50;3.43;;;7.90;99.90;;;;;;485280;245;28456;-73
2022/04/07 02:53:45;;;;;;;3.30;2.80;;;7.90;99.90;;;;;;485247;245;27995;-71
2022/04/07 02:55:47;;;;;;;3.13;2.70;;;7.90;99.90;;;;;;485246;245;27563;-71
2022/04/07 02:57:48;;;;;;;3.10;2.40;;;7.90;99.90;;;;;;485226;245;27968;-71
2022/04/07 02:59:49;;;;;;;3.07;2.37;;;7.90;99.90;;;;;;485235;245;28092;-72
2022/04/07 03:01:52;;;;;;;3.30;3.00;;;7.90;99.90;;;;;;485247;245;28178;-72
2022/04/07 03:03:55;;;;;;;2.87;2.67;;;7.90;99.90;;;;;;485106;245;28354;-72
2022/04/07 03:05:53;;;;;;;2.80;2.60;;;7.90;99.90;;;;;;484856;245;28501;-72
2022/04/07 03:07:54;;;;;;;5.87;3.10;;;7.90;99.90;;;;;;485239;245;28418;-71
2022/04/07 03:09:55;;;;;;;2.60;2.40;;;7.90;99.90;;;;;;485197;245;28605;-71
2022/04/07 03:11:57;;;;;;;2.63;2.43;;;7.90;99.90;;;;;;485292;245;28150;-74
2022/04/07 03:13:58;;;;;;;3.00;2.80;;;7.90;99.90;;;;;;485265;245;27974;-72
2022/04/07 03:15:59;;;;;;;2.80;2.60;;;7.90;99.90;;;;;;485249;245;28076;-71
2022/04/07 03:18:00;;;;;;;3.20;2.87;;;7.90;99.90;;;;;;485267;245;28119;-71
2022/04/07 03:20:02;;;;;;;2.83;2.63;;;7.90;99.90;;;;;;485240;245;27882;-71
2022/04/07 03:22:03;;;;;;;4.70;2.40;;;7.90;99.90;;;;;;485268;245;27984;-74
2022/04/07 03:24:04;;;;;;;3.47;2.57;;;7.90;99.90;;;;;;485250;245;28075;-71
2022/04/07 03:26:05;;;;;;;2.63;2.43;;;7.90;99.90;;;;;;485249;245;27879;-71
2022/04/07 03:28:07;;;;;;;2.73;2.53;;;7.90;99.90;;;;;;485239;245;28042;-71
2022/04/07 03:30:08;;;;;;;2.57;2.37;;;7.90;99.90;;;;;;485229;245;28127;-71
2022/04/07 03:32:09;;;;;;;2.63;2.43;;;7.90;99.90;;;;;;485280;245;27657;-74
2022/04/07 03:34:10;;;;;;;3.17;2.20;;;7.90;99.90;;;;;;485239;245;27666;-71
2022/04/07 03:36:12;;;;;;;2.30;2.20;;;7.90;99.90;;;;;;485243;245;28212;-71
2022/04/07 03:38:13;;;;;;;2.33;2.23;;;7.90;99.90;;;;;;485235;245;27937;-71
2022/04/07 03:40:14;;;;;;;2.33;2.13;;;7.90;99.90;;;;;;485227;245;28550;-71
2022/04/07 03:42:15;;;;;;;2.20;2.10;;;7.90;99.90;;;;;;485263;245;28019;-74
2022/04/07 03:44:17;;;;;;;2.10;2.00;;;7.90;99.90;;;;;;485248;245;28260;-71
2022/04/07 03:46:21;;;;;;;3.00;2.00;;;7.90;99.90;;;;;;485252;245;28124;-72
2022/04/07 03:48:20;;;;;;;2.10;2.00;;;7.90;99.90;;;;;;485039;245;28397;-71
2022/04/07 03:50:20;;;;;;;2.07;1.87;;;7.90;99.90;;;;;;485217;245;28442;-72
2022/04/07 03:52:22;;;;;;;2.00;1.90;;;7.90;99.90;;;;;;485266;245;27874;-73
2022/04/07 03:54:23;;;;;;;2.00;1.90;;;7.90;99.90;;;;;;485239;245;27900;-71
2022/04/07 03:56:24;;;;;;;4.40;1.87;;;7.80;99.90;;;;;;485243;245;27799;-72
2022/04/07 03:58:29;;;;;;;2.00;1.80;;;7.80;99.90;;;;;;485237;245;28623;-71
2022/04/07 04:00:27;;;;;;;2.40;2.20;;;7.80;99.90;;;;;;484963;245;27994;-71
2022/04/07 04:02:28;;;;;;;1.80;1.70;;;7.80;99.90;;;;;;485235;245;28197;-71
2022/04/07 04:04:29;;;;;;;2.13;2.03;;;7.80;99.90;;;;;;485236;245;27933;-71
2022/04/07 04:06:30;;;;;;;1.70;1.60;;;7.80;99.90;;;;;;485249;245;28109;-73
2022/04/07 04:08:32;;;;;;;2.70;2.00;;;7.90;99.90;;;;;;485354;245;28850;-72
2022/04/07 04:10:33;;;;;;;2.30;1.90;;;7.80;99.90;;;;;;485243;245;28960;-71
2022/04/07 04:12:34;;;;;;;1.90;1.80;;;7.80;99.90;;;;;;485246;245;27989;-74
2022/04/07 04:14:35;;;;;;;1.50;1.50;;;7.80;99.90;;;;;;485253;245;28065;-71
2022/04/07 04:16:37;;;;;;;1.80;1.70;;;7.80;99.90;;;;;;485260;245;28003;-72
2022/04/07 04:18:38;;;;;;;1.90;1.80;;;7.80;99.90;;;;;;485263;245;28439;-72
2022/04/07 04:20:39;;;;;;;1.87;1.77;;;7.80;99.90;;;;;;485259;245;28563;-71
2022/04/07 04:22:40;;;;;;;1.77;1.67;;;7.70;99.90;;;;;;485268;245;28130;-74
2022/04/07 04:24:42;;;;;;;1.70;1.60;;;7.70;99.90;;;;;;485280;245;27719;-72
2022/04/07 04:26:43;;;;;;;2.70;1.83;;;7.80;99.90;;;;;;485278;245;28055;-72
2022/04/07 04:28:44;;;;;;;1.40;1.40;;;7.80;99.90;;;;;;485272;245;27581;-72
2022/04/07 04:30:45;;;;;;;1.70;1.60;;;7.80;99.90;;;;;;485235;245;27999;-72
2022/04/07 04:32:47;;;;;;;1.80;1.70;;;7.80;99.90;;;;;;485269;245;27886;-71
2022/04/07 04:34:48;;;;;;;2.27;2.07;;;7.80;99.90;;;;;;485279;245;27969;-71
2022/04/07 04:36:49;;;;;;;2.00;1.90;;;7.80;99.90;;;;;;485228;245;28115;-72
2022/04/07 04:38:50;;;;;;;2.83;2.20;;;7.80;99.90;;;;;;485219;245;28411;-72
2022/04/07 04:40:52;;;;;;;2.93;2.07;;;7.80;99.90;;;;;;485228;245;28050;-72
2022/04/07 04:45:10;;;;;;;1.62;1.52;;;7.80;99.90;;;;;;506615;233;35782;-71
2022/04/07 04:47:11;;;;;;;2.20;2.10;;;7.80;99.90;;;;;;503223;236;27390;-75
2022/04/07 04:49:12;;;;;;;2.33;2.23;;;7.80;99.90;;;;;;503213;236;27888;-72
2022/04/07 04:51:14;;;;;;;1.83;1.73;;;7.90;99.90;;;;;;503206;236;27817;-72
2022/04/07 04:53:15;;;;;;;1.70;1.60;;;7.80;99.90;;;;;;503215;236;27426;-72
2022/04/07 04:55:16;;;;;;;2.30;2.20;;;7.80;99.90;;;;;;503209;236;27916;-72
2022/04/07 04:57:17;;;;;;;2.93;1.87;;;7.80;99.90;;;;;;503254;236;27839;-74
2022/04/07 04:59:18;;;;;;;2.40;2.20;;;7.80;99.90;;;;;;503263;236;28122;-72
2022/04/07 05:01:20;;;;;;;2.60;2.40;;;7.80;99.90;;;;;;503246;236;27510;-72
2022/04/07 05:03:21;;;;;;;2.10;2.00;;;7.80;99.90;;;;;;503211;236;28751;-72
2022/04/07 05:05:22;;;;;;;2.03;1.93;;;7.80;99.90;;;;;;503246;236;27824;-72
2022/04/07 05:07:23;;;;;;;1.93;1.83;;;7.80;99.90;;;;;;503242;236;27940;-75
2022/04/07 05:09:25;;;;;;;1.90;1.80;;;7.80;99.90;;;;;;503223;236;27996;-71
2022/04/07 05:11:26;;;;;;;2.17;2.07;;;7.80;99.90;;;;;;503206;236;28011;-72
2022/04/07 05:13:27;;;;;;;4.70;2.37;;;7.80;99.90;;;;;;503194;236;28300;-72
2022/04/07 05:15:29;;;;;;;1.80;1.70;;;7.80;99.90;;;;;;503202;236;27894;-72
2022/04/07 05:17:30;;;;;;;1.80;1.70;;;7.80;99.90;;;;;;503236;236;28500;-74
2022/04/07 05:19:31;;;;;;;1.80;1.70;;;7.80;99.90;;;;;;503211;236;28742;-72
2022/04/07 05:21:33;;;;;;;1.93;1.83;;;7.80;99.90;;;;;;503225;236;27586;-72
2022/04/07 05:23:33;;;;;;;2.90;2.10;;;7.80;99.90;;;;;;503199;236;28857;-72
2022/04/07 05:25:35;;;;;;;4.10;2.23;;;7.80;99.90;;;;;;503212;236;27932;-72
2022/04/07 05:27:36;;;;;;;4.28;2.00;;;7.80;99.90;;;;;;503236;236;27947;-75
2022/04/07 05:29:37;;;;;;;2.00;1.90;;;7.80;99.90;;;;;;503223;236;27478;-72
2022/04/07 05:31:38;;;;;;;2.00;1.80;;;7.80;99.90;;;;;;503199;236;27711;-73
2022/04/07 05:33:40;;;;;;;2.00;1.90;;;7.80;99.90;;;;;;503184;236;27905;-72
2022/04/07 05:35:41;;;;;;;2.20;1.80;;;7.80;99.90;;;;;;503201;236;27944;-72
2022/04/07 05:37:42;;;;;;;2.00;1.73;;;7.90;99.90;;;;;;503206;236;28119;-75
2022/04/07 05:39:43;;;;;;;1.70;1.60;;;7.90;99.90;;;;;;503208;236;27586;-70
2022/04/07 05:41:45;;;;;;;2.00;1.90;;;7.90;99.90;;;;;;503191;236;28379;-70
2022/04/07 05:43:46;;;;;;;1.83;1.70;;;7.90;99.90;;;;;;503152;236;28543;-70
2022/04/07 05:45:49;;;;;;;1.50;1.50;;;7.90;99.90;;;;;;503182;236;28998;-72
2022/04/07 05:47:48;;;;;;;1.70;1.60;;;7.90;99.90;;;;;;503074;236;28502;-74
2022/04/07 05:49:50;;;;;;;1.93;1.83;;;7.90;99.90;;;;;;503197;236;28208;-72
2022/04/07 05:51:54;;;;;;;1.97;1.70;;;7.80;99.90;;;;;;503153;236;28178;-72
2022/04/07 05:53:52;;;;;;;1.53;1.50;;;7.80;99.90;;;;;;502908;236;27562;-73
2022/04/07 05:55:53;;;;;;;1.30;1.30;;;7.80;99.90;;;;;;503103;236;28004;-73
2022/04/07 05:57:55;;;;;;;1.37;1.30;;;7.80;99.90;;;;;;503094;236;27729;-72
2022/04/07 05:59:56;;;;;;;1.40;1.40;;;7.80;99.90;;;;;;503113;236;27871;-72
2022/04/07 06:01:57;;;;;;;1.83;1.50;;;7.80;99.90;;;;;;503083;236;27943;-73
2022/04/07 06:03:59;;;;;;;1.40;1.33;;;7.90;99.90;;;;;;503057;236;27478;-72
2022/04/07 06:06:00;;;;;;;1.83;1.73;;;7.90;99.90;;;;;;503067;236;27909;-72
2022/04/07 06:08:01;;;;;;;1.50;1.43;;;7.90;99.90;;;;;;503093;236;27900;-72
2022/04/07 06:10:02;;;;;;;2.10;1.30;;;7.90;99.90;;;;;;503139;236;27530;-72
2022/04/07 06:12:03;;;;;;;1.40;1.40;;;7.90;99.90;;;;;;503091;236;28057;-73
2022/04/07 06:14:05;;;;;;;1.33;1.23;;;7.90;99.90;;;;;;503087;236;27772;-72
2022/04/07 06:16:06;;;;;;;1.30;1.30;;;7.90;99.90;;;;;;503095;236;28077;-72
2022/04/07 06:18:07;;;;;;;2.00;1.30;;;7.90;99.90;;;;;;503090;236;29305;-71
2022/04/07 06:20:12;;;;;;;1.27;1.27;;;7.90;99.90;;;;;;503122;236;28430;-72
2022/04/07 06:22:11;;;;;;;1.43;1.33;;;7.90;99.90;;;;;;502877;236;27937;-73
2022/04/07 06:24:13;;;;;;;2.13;1.40;;;7.90;99.90;;;;;;503027;236;28609;-72
2022/04/07 06:26:12;;;;;;;2.10;1.27;;;7.90;99.90;;;;;;502978;236;28060;-73
2022/04/07 06:28:13;;;;;;;4.50;1.73;;;7.90;99.90;;;;;;503102;236;28050;-71
2022/04/07 06:30:15;;;;;;;1.20;1.20;;;8.00;99.90;;;;;;503119;236;27795;-72
2022/04/07 06:32:16;;;;;;;1.20;1.20;;;8.00;99.90;;;;;;503116;236;28100;-73
2022/04/07 06:34:17;;;;;;;1.00;1.00;;;8.10;99.90;;;;;;503100;236;28066;-72
2022/04/07 06:36:18;;;;;;;1.83;1.30;;;8.10;99.90;;;;;;503102;236;28148;-73
2022/04/07 06:38:20;;;;;;;1.10;1.10;;;8.20;99.90;;;;;;503114;236;28446;-71
2022/04/07 06:40:21;;;;;;;2.30;1.20;;;8.20;99.90;;;;;;503135;236;27780;-72
2022/04/07 06:42:22;;;;;;;4.63;1.40;;;8.20;99.90;;;;;;503154;236;28007;-73
2022/04/07 06:44:24;;;;;;;1.63;1.13;;;8.20;99.90;;;;;;503092;236;28764;-72
2022/04/07 06:46:25;;;;;;;1.10;1.10;;;8.20;99.90;;;;;;503117;236;28214;-72
2022/04/07 06:48:26;;;;;;;1.10;1.10;;;8.20;99.90;;;;;;503143;236;28289;-74
2022/04/07 06:50:27;;;;;;;1.80;1.23;;;8.30;99.90;;;;;;503114;236;28141;-72
2022/04/07 06:52:29;;;;;;;1.30;1.30;;;8.20;99.90;;;;;;503129;236;28406;-72
2022/04/07 06:54:30;;;;;;;1.30;1.20;;;8.20;99.90;;;;;;503082;236;27989;-72
2022/04/07 06:56:31;;;;;;;1.10;1.10;;;8.30;99.90;;;;;;503056;236;27901;-72
2022/04/07 06:58:32;;;;;;;1.37;1.27;;;8.30;99.90;;;;;;503126;236;27947;-74
2022/04/07 07:00:34;;;;;;;1.13;1.13;;;8.20;99.90;;;;;;503111;236;27685;-72
2022/04/07 07:02:35;;;;;;;1.23;1.23;;;8.30;99.90;;;;;;503097;236;28108;-72
2022/04/07 07:04:36;;;;;;;1.90;1.10;;;8.30;99.90;;;;;;503056;236;27884;-72
2022/04/07 07:06:37;;;;;;;1.20;1.20;;;8.30;99.90;;;;;;503099;236;27995;-72
2022/04/07 07:08:40;;;;;;;1.40;1.40;;;8.30;99.90;;;;;;503112;236;28042;-73
2022/04/07 07:10:40;;;;;;;1.10;1.10;;;8.30;99.90;;;;;;503003;236;27923;-72
2022/04/07 07:12:41;;;;;;;1.17;1.17;;;8.30;99.90;;;;;;503072;236;27932;-73
2022/04/07 07:14:42;;;;;;;1.10;1.10;;;8.40;99.90;;;;;;503076;236;27904;-72
2022/04/07 07:16:44;;;;;;;1.20;1.10;;;8.30;99.90;;;;;;503088;236;27904;-72
2022/04/07 07:18:45;;;;;;;1.20;1.10;;;8.40;99.90;;;;;;503106;236;27851;-73
2022/04/07 07:20:46;;;;;;;1.30;1.20;;;8.40;99.90;;;;;;503082;236;28000;-72
2022/04/07 07:22:47;;;;;;;2.10;1.13;;;8.40;99.90;;;;;;503098;236;27967;-72
2022/04/07 07:24:51;;;;;;;1.00;1.00;;;8.40;99.90;;;;;;503060;236;28434;-72
2022/04/07 07:26:50;;;;;;;1.10;1.10;;;8.40;99.90;;;;;;502916;236;28401;-72
2022/04/07 07:28:51;;;;;;;1.10;1.10;;;8.40;99.90;;;;;;503104;236;28287;-75
2022/04/07 07:30:52;;;;;;;1.00;1.00;;;8.50;99.90;;;;;;503104;236;28434;-72
2022/04/07 07:32:54;;;;;;;1.30;1.10;;;8.50;99.90;;;;;;503080;236;27959;-72
2022/04/07 07:34:55;;;;;;;1.27;1.27;;;8.50;99.90;;;;;;503060;236;27782;-72
2022/04/07 07:36:56;;;;;;;1.00;1.00;;;8.50;99.90;;;;;;503090;236;28047;-72
2022/04/07 07:38:57;;;;;;;1.67;1.20;;;8.50;99.90;;;;;;503101;236;27973;-74
2022/04/07 07:40:59;;;;;;;1.17;1.17;;;8.50;99.90;;;;;;503079;236;27881;-72
2022/04/07 07:43:03;;;;;;;1.80;1.70;;;8.50;99.90;;;;;;503040;236;28004;-74
2022/04/07 07:45:04;;;;;;;1.30;1.20;;;8.50;99.90;;;;;;502964;236;27946;-73
2022/04/07 07:47:05;;;;;;;1.70;1.40;;;8.50;99.90;;;;;;503050;236;27947;-72
2022/04/07 07:49:08;;;;;;;1.30;1.30;;;8.50;99.90;;;;;;503053;236;27834;-72
2022/04/07 07:51:08;;;;;;;1.17;1.10;;;8.50;99.90;;;;;;502954;236;27695;-73
2022/04/07 07:53:10;;;;;;;1.10;1.10;;;8.50;99.90;;;;;;503090;236;27968;-71
2022/04/07 07:55:10;;;;;;;1.20;1.20;;;8.50;99.90;;;;;;503063;236;27945;-73
2022/04/07 07:57:11;;;;;;;1.00;1.00;;;8.50;99.90;;;;;;503079;236;28229;-72
2022/04/07 07:59:13;;;;;;;1.10;1.10;;;8.50;99.90;;;;;;503074;236;28504;-72
2022/04/07 08:01:14;;;;;;;1.10;1.10;;;8.60;99.90;;;;;;503091;236;28398;-73
2022/04/07 08:03:15;;;;;;;1.57;1.47;;;8.60;99.90;;;;;;503085;236;28459;-72
2022/04/07 08:05:16;;;;;;;1.10;1.10;;;8.60;99.90;;;;;;503084;236;28307;-73
2022/04/07 08:07:18;;;;;;;1.30;1.20;;;8.70;99.90;;;;;;503115;236;27917;-72
2022/04/07 08:09:19;;;;;;;1.20;1.20;;;8.70;99.90;;;;;;503119;236;28014;-73
2022/04/07 08:11:20;;;;;;;1.13;1.13;;;8.70;99.90;;;;;;503123;236;27836;-72
2022/04/07 08:13:21;;;;;;;1.10;1.10;;;8.70;99.90;;;;;;503106;236;28030;-72
2022/04/07 08:15:24;;;;;;;1.30;1.30;;;8.70;99.90;;;;;;503098;236;28003;-72
2022/04/07 08:17:24;;;;;;;3.13;1.40;;;8.70;99.90;;;;;;502968;236;27869;-72
2022/04/07 08:19:25;;;;;;;1.10;1.10;;;8.70;99.90;;;;;;503096;236;27792;-73
2022/04/07 08:21:26;;;;;;;1.13;1.10;;;8.80;99.90;;;;;;503079;236;27892;-73
2022/04/07 08:23:28;;;;;;;1.77;1.20;;;8.80;99.90;;;;;;503092;236;27831;-72
2022/04/07 08:25:29;;;;;;;2.30;1.10;;;8.80;99.90;;;;;;503093;236;27962;-73
2022/04/07 08:27:30;;;;;;;2.50;1.40;;;8.90;99.90;;;;;;503094;236;27900;-72
2022/04/07 08:29:31;;;;;;;1.87;1.30;;;8.90;99.90;;;;;;503081;236;27701;-73
2022/04/07 08:31:33;;;;;;;1.23;1.23;;;8.90;99.90;;;;;;503091;236;27994;-72
2022/04/07 08:33:34;;;;;;;1.20;1.10;;;8.90;99.90;;;;;;503081;236;27903;-72
2022/04/07 08:35:35;;;;;;;2.40;1.40;;;9.00;99.90;;;;;;503106;236;28285;-74
2022/04/07 08:37:37;;;;;;;1.47;1.23;;;9.00;99.90;;;;;;503082;236;28440;-72
2022/04/07 08:39:38;;;;;;;1.27;1.20;;;9.00;99.90;;;;;;503095;236;28524;-72
2022/04/07 08:41:39;;;;;;;1.27;1.27;;;9.00;99.90;;;;;;503074;236;30243;-72
2022/04/07 08:43:40;;;;;;;1.10;1.07;;;9.10;99.90;;;;;;503077;236;28283;-72
2022/04/07 08:45:42;;;;;;;3.60;1.33;;;9.10;99.90;;;;;;503096;236;28099;-73
2022/04/07 08:47:43;;;;;;;1.77;1.00;;;9.10;99.90;;;;;;502995;236;27968;-72
2022/04/07 08:49:44;;;;;;;1.10;1.00;;;9.00;99.90;;;;;;503082;236;28132;-72
2022/04/07 08:51:45;;;;;;;1.00;1.00;;;9.10;99.90;;;;;;503071;236;27872;-72
2022/04/07 08:53:46;;;;;;;1.03;1.03;;;9.00;99.90;;;;;;503072;236;27708;-72
2022/04/07 08:55:48;;;;;;;1.00;1.00;;;9.00;99.90;;;;;;503094;236;27910;-75
2022/04/07 08:57:49;;;;;;;1.97;1.40;;;9.00;99.90;;;;;;503079;236;28064;-72
2022/04/07 08:59:50;;;;;;;1.10;1.10;;;8.90;99.90;;;;;;503083;236;28094;-73
2022/04/07 09:01:51;;;;;;;1.27;1.17;;;8.90;99.90;;;;;;503053;236;27915;-72
2022/04/07 09:03:53;;;;;;;1.00;1.00;;;9.00;99.90;;;;;;503051;236;27927;-72
2022/04/07 09:05:54;;;;;;;2.00;1.20;;;9.00;99.90;;;;;;503091;236;28331;-75
2022/04/07 09:07:55;;;;;;;2.20;1.50;;;9.00;99.90;;;;;;503104;236;27999;-72
2022/04/07 09:09:56;;;;;;;1.73;1.60;;;9.10;99.90;;;;;;503089;236;27936;-73
2022/04/07 09:11:58;;;;;;;2.00;1.90;;;9.20;99.90;;;;;;503072;236;27857;-72
2022/04/07 09:13:59;;;;;;;2.73;1.50;;;9.20;99.90;;;;;;503065;236;28826;-73
2022/04/07 09:16:00;;;;;;;2.33;2.13;;;9.20;99.90;;;;;;503096;236;28194;-74
2022/04/07 09:18:01;;;;;;;1.80;1.70;;;9.10;99.90;;;;;;503090;236;28487;-72
2022/04/07 09:20:03;;;;;;;1.70;1.60;;;9.10;99.90;;;;;;503071;236;28442;-72
2022/04/07 09:22:04;;;;;;;1.93;1.83;;;9.20;99.90;;;;;;503074;236;28350;-72
2022/04/07 09:24:08;;;;;;;1.40;1.40;;;9.10;99.90;;;;;;503063;236;27802;-72
2022/04/07 09:26:09;;;;;;;4.27;3.97;;;9.10;99.90;;;;;;503035;236;28340;-72
2022/04/07 09:28:11;;;;;;;3.23;2.93;;;9.10;99.90;;;;;;503067;236;28572;-73
2022/04/07 09:30:12;;;;;;;2.67;2.50;;;9.10;99.90;;;;;;503089;236;28460;-72
2022/04/07 09:32:13;;;;;;;2.63;2.43;;;9.10;99.90;;;;;;503095;236;28560;-72
2022/04/07 09:34:14;;;;;;;2.00;1.90;;;9.20;99.90;;;;;;503105;236;28102;-72
2022/04/07 09:36:21;;;;;;;1.77;1.67;;;9.30;99.90;;;;;;503092;236;27829;-73
2022/04/07 09:38:17;;;;;;;1.63;1.53;;;9.40;99.90;;;;;;502686;236;27692;-74
2022/04/07 09:40:18;;;;;;;1.20;1.20;;;9.40;99.90;;;;;;503112;236;27897;-72
2022/04/07 09:42:23;;;;;;;1.30;1.20;;;9.30;99.90;;;;;;503068;236;27982;-73
2022/04/07 09:44:22;;;;;;;1.10;1.00;;;9.30;99.90;;;;;;502809;236;27877;-72
2022/04/07 09:46:22;;;;;;;0.83;0.83;;;9.40;99.90;;;;;;502943;236;27793;-72
2022/04/07 09:48:27;;;;;;;2.10;1.20;;;9.30;99.90;;;;;;503099;236;28282;-75
2022/04/07 09:50:24;;;;;;;0.90;0.90;;;9.30;99.90;;;;;;502789;236;28089;-72
2022/04/07 09:52:25;;;;;;;1.83;1.00;;;9.40;99.90;;;;;;503124;236;27606;-73
2022/04/07 09:54:27;;;;;;;1.00;1.00;;;9.40;99.90;;;;;;503118;236;27885;-72
2022/04/07 09:56:28;;;;;;;1.63;1.00;;;9.40;99.90;;;;;;503127;236;27730;-72
2022/04/07 09:58:29;;;;;;;1.40;1.30;;;9.40;99.90;;;;;;503150;236;27942;-73
2022/04/07 10:00:30;;;;;;;1.67;1.57;;;9.40;99.90;;;;;;503131;236;27835;-72
2022/04/07 10:02:32;;;;;;;1.47;1.37;;;9.50;99.90;;;;;;503135;236;28489;-72
2022/04/07 10:04:37;;;;;;;1.03;1.00;;;9.50;99.90;;;;;;503120;236;28233;-72
2022/04/07 10:06:34;;;;;;;0.90;0.90;;;9.60;99.90;;;;;;502769;236;28428;-72
2022/04/07 10:08:35;;;;;;;3.33;1.03;;;9.60;99.90;;;;;;503133;236;28349;-72
2022/04/07 10:10:37;;;;;;;1.30;1.20;;;9.50;99.90;;;;;;503124;236;28216;-72
2022/04/07 10:12:38;;;;;;;0.87;0.87;;;9.50;99.90;;;;;;503108;236;28016;-72
2022/04/07 10:14:39;;;;;;;1.10;1.00;;;9.70;99.90;;;;;;503114;236;27696;-72
2022/04/07 10:16:40;;;;;;;1.90;1.10;;;9.70;99.90;;;;;;503093;236;27957;-73
2022/04/07 10:18:42;;;;;;;1.50;1.40;;;9.70;99.90;;;;;;502915;236;27885;-72
2022/04/07 10:20:44;;;;;;;1.00;0.90;;;9.70;99.90;;;;;;503114;236;27871;-72
2022/04/07 10:22:44;;;;;;;0.90;0.90;;;9.70;99.90;;;;;;502999;236;27732;-74
2022/04/07 10:24:45;;;;;;;0.83;0.83;;;9.70;99.90;;;;;;503109;236;27671;-72
2022/04/07 10:26:47;;;;;;;0.90;0.90;;;9.70;99.90;;;;;;503095;236;27910;-73
2022/04/07 10:28:48;;;;;;;0.97;0.97;;;9.90;99.90;;;;;;503104;236;27702;-75
2022/04/07 10:30:49;;;;;;;2.60;1.10;;;9.90;99.90;;;;;;503106;236;28580;-72
2022/04/07 10:32:52;;;;;;;3.73;1.00;;;10.10;99.90;;;;;;503118;236;27949;-73
2022/04/07 10:34:52;;;;;;;0.80;0.80;;;10.00;99.90;;;;;;502956;236;28023;-70
2022/04/07 10:36:53;;;;;;;0.90;0.90;;;10.00;99.90;;;;;;503089;236;27863;-71
2022/04/07 10:38:56;;;;;;;0.80;0.80;;;10.00;99.90;;;;;;503107;236;29155;-70
2022/04/07 10:41:01;;;;;;;1.00;1.00;;;10.00;99.90;;;;;;502985;236;28358;-69
2022/04/07 10:42:57;;;;;;;0.83;0.83;;;10.00;99.90;;;;;;502629;236;28514;-71